Forside
METAR-TAF:

METAR-TAF

Lufthavne :

Utsunomiya, Japan

Breddekreds: 36-31N, længdekreds: 139-52E, højde: 102 m

Aktuelle vejr

Denne rapport blev lavet for 1 time og 13 minutter siden, kl. 00:30 UTC
Vind 1 kt fra varierende retninger
Temperatur 21°C
Fugtighed 69%
Tryk 1012 hPa
Sigt 10 km eller mere
Nogle få skyer i en højde af 2500 ft
Brudte skyer i en højde af 3500 ft
Brudte skyer i en højde af 12000 ft

METAR: RJTU 250030Z VRB01KT 9999 FEW025 BKN035 BKN120 21/15 Q1012 RMK 1CU025 5CU035 7AC120 A2990

Tid: 10:43 (01:43 UTC)


TAF: fraværende

Vejrobservationer og prognoser fra mere end 4000 lufthavne (METAR og TAF).

De gule og røde prikker repræsenterer de meteorologiske stationer.

Flyt musen over at se navnet på stationen.

Så klik over at se vejr observationer og prognoser.

At skifte det kort: Klik på de grønne knapper med et sort kors for at zoome ind; på den grønne knap med en bindestreg for at zoome ud; eller på de grønne pile for tilstødende kort.


METAR-TAF: